createdAt,value
2023-09-25T00:00:50.644Z,101633.71
2023-09-25T00:06:13.224Z,101634.60
2023-09-25T00:11:16.912Z,101638.02
2023-09-25T00:16:21.072Z,101647.04
2023-09-25T00:21:24.886Z,101655.11
2023-09-25T00:26:29.089Z,101660.05
2023-09-25T00:31:33.430Z,101660.69
2023-09-25T00:36:37.193Z,101665.97
2023-09-25T00:41:40.676Z,101662.55
2023-09-25T00:46:45.523Z,101665.83
2023-09-25T00:51:49.880Z,101669.48
2023-09-25T00:56:53.584Z,101679.77
2023-09-25T01:01:57.304Z,101683.84
2023-09-25T01:07:02.305Z,101686.20
2023-09-25T01:12:06.910Z,101683.99
2023-09-25T01:17:10.434Z,101680.05
2023-09-25T01:22:14.240Z,101671.05
2023-09-25T01:27:18.132Z,101663.92
2023-09-25T01:32:21.828Z,101663.88
2023-09-25T01:37:25.509Z,101663.39
2023-09-25T01:42:29.410Z,101663.98
2023-09-25T01:47:33.178Z,101673.01
2023-09-25T01:52:37.080Z,101666.77
2023-09-25T01:57:40.655Z,101656.40
2023-09-25T02:02:44.451Z,101648.97
2023-09-25T02:07:48.156Z,101645.19
2023-09-25T02:12:51.866Z,101646.42
2023-09-25T02:17:55.598Z,101648.89
2023-09-25T02:22:59.442Z,101651.33
2023-09-25T02:28:03.234Z,101654.35
2023-09-25T02:33:06.846Z,101653.56
2023-09-25T02:38:10.628Z,101655.96
2023-09-25T02:43:14.501Z,101657.09
2023-09-25T02:48:18.177Z,101651.98
2023-09-25T02:53:21.853Z,101641.77
2023-09-25T02:58:25.674Z,101637.10
2023-09-25T03:03:30.632Z,101631.95
2023-09-25T03:08:34.261Z,101631.40
2023-09-25T03:13:53.842Z,101624.73
2023-09-25T03:19:57.980Z,101624.27
2023-09-25T03:25:04.959Z,101629.59
2023-09-25T03:30:29.425Z,101629.00
2023-09-25T03:35:53.786Z,101629.61
2023-09-25T03:41:20.446Z,101632.45
2023-09-25T03:46:40.537Z,101638.30
2023-09-25T03:52:15.105Z,101641.52
2023-09-25T03:57:35.263Z,101636.38
2023-09-25T04:03:20.162Z,101634.39
2023-09-25T04:08:42.457Z,101635.41
2023-09-25T04:14:07.918Z,101642.08
2023-09-25T04:19:14.841Z,101647.55
2023-09-25T04:24:19.603Z,101644.31
2023-09-25T04:29:28.970Z,101645.86
2023-09-25T04:34:46.015Z,101650.03
2023-09-25T04:40:08.927Z,101666.34
2023-09-25T04:45:18.065Z,101659.25
2023-09-25T04:50:32.969Z,101664.81
2023-09-25T04:55:39.423Z,101671.35
2023-09-25T05:01:04.803Z,101675.60
2023-09-25T05:06:17.074Z,101677.37
2023-09-25T05:11:50.184Z,101681.83
2023-09-25T05:17:05.974Z,101683.63
2023-09-25T05:22:41.992Z,101689.06
2023-09-25T05:28:15.987Z,101690.43
2023-09-25T05:33:51.576Z,101695.56
2023-09-25T05:39:09.768Z,101698.96
2023-09-25T05:44:32.485Z,101707.05
2023-09-25T05:49:44.007Z,101716.67
2023-09-25T05:54:59.365Z,101716.05
2023-09-25T06:00:15.736Z,101713.07
2023-09-25T06:05:23.124Z,101717.17
2023-09-25T06:10:47.152Z,101720.57
2023-09-25T06:15:54.454Z,101726.66
2023-09-25T06:21:04.591Z,101721.73
2023-09-25T06:26:12.319Z,101730.75
2023-09-25T06:31:18.394Z,101736.37
2023-09-25T06:36:22.214Z,101739.48
2023-09-25T06:41:46.644Z,101738.20
2023-09-25T06:46:53.392Z,101738.09
2023-09-25T06:52:10.240Z,101743.83
2023-09-25T06:57:34.200Z,101746.33
2023-09-25T07:02:43.413Z,101746.98
2023-09-25T07:07:52.739Z,101747.65
2023-09-25T07:13:02.794Z,101748.01
2023-09-25T07:18:06.680Z,101750.64
2023-09-25T07:23:11.575Z,101757.56
2023-09-25T07:28:15.386Z,101762.32
2023-09-25T07:33:19.801Z,101765.73
2023-09-25T07:38:26.040Z,101770.73
2023-09-25T07:48:41.135Z,101781.20
2023-09-25T08:01:52.324Z,101788.73
2023-09-25T08:06:56.138Z,101785.11
2023-09-25T08:11:59.794Z,101784.98
2023-09-25T08:17:03.870Z,101794.76
2023-09-25T08:22:11.655Z,101790.96
2023-09-25T08:27:15.703Z,101794.14
2023-09-25T08:32:19.186Z,101794.55
2023-09-25T08:37:22.885Z,101793.70
2023-09-25T08:42:27.986Z,101794.38
2023-09-25T08:47:36.390Z,101795.56
2023-09-25T08:52:40.825Z,101791.23
2023-09-25T08:57:44.970Z,101791.94
2023-09-25T09:02:50.799Z,101788.06
2023-09-25T09:08:01.362Z,101783.31
2023-09-25T09:13:12.477Z,101779.02
2023-09-25T09:18:25.648Z,101777.57
2023-09-25T09:23:44.039Z,101769.81
2023-09-25T09:28:48.778Z,101765.10
2023-09-25T09:33:57.896Z,101760.50
2023-09-25T09:39:04.884Z,101759.77
2023-09-25T09:44:08.698Z,101751.06
2023-09-25T09:49:14.988Z,101741.92
2023-09-25T09:57:41.128Z,101733.35
2023-09-25T10:02:46.276Z,101735.55
2023-09-25T10:08:12.904Z,101728.71
2023-09-25T10:13:31.248Z,101722.23
2023-09-25T10:18:35.024Z,101714.75
2023-09-25T10:23:42.677Z,101712.80
2023-09-25T10:28:47.156Z,101708.96
2023-09-25T10:34:06.296Z,101712.37
2023-09-25T10:39:14.827Z,101703.86
2023-09-25T10:44:18.489Z,101693.67
2023-09-25T10:49:23.652Z,101688.84
2023-09-25T10:54:27.325Z,101682.30
2023-09-25T10:59:31.164Z,101677.27
2023-09-25T11:04:34.728Z,101672.97
2023-09-25T11:09:38.810Z,101665.70
2023-09-25T11:14:42.566Z,101660.19
2023-09-25T11:19:47.093Z,101656.41
2023-09-25T11:24:57.591Z,101648.90
2023-09-25T11:30:15.553Z,101645.51
2023-09-25T11:35:20.674Z,101640.73
2023-09-25T11:40:24.388Z,101638.30
2023-09-25T11:45:28.541Z,101640.42
2023-09-25T11:50:32.437Z,101634.32
2023-09-25T11:55:36.272Z,101632.88
2023-09-25T12:00:41.269Z,101625.91
2023-09-25T12:05:44.840Z,101628.58
2023-09-25T12:10:48.657Z,101625.30
2023-09-25T12:15:52.604Z,101622.08
2023-09-25T12:20:56.511Z,101616.79
2023-09-25T12:26:00.855Z,101613.13
2023-09-25T12:31:04.743Z,101615.14
2023-09-25T12:36:08.717Z,101612.64
2023-09-25T12:41:13.492Z,101616.86
2023-09-25T12:46:17.685Z,101617.80
2023-09-25T12:51:21.307Z,101615.31
2023-09-25T12:56:25.478Z,101605.90
2023-09-25T13:01:29.773Z,101605.54
2023-09-25T13:06:33.492Z,101603.59
2023-09-25T13:11:37.942Z,101597.80
2023-09-25T13:16:41.723Z,101595.74
2023-09-25T13:21:45.415Z,101584.52
2023-09-25T13:26:48.791Z,101583.09
2023-09-25T13:31:52.593Z,101581.59
2023-09-25T13:36:55.956Z,101577.12
2023-09-25T13:41:59.656Z,101577.39
2023-09-25T13:47:03.491Z,101570.05
2023-09-25T13:52:07.029Z,101569.15
2023-09-25T13:57:14.467Z,101563.09
2023-09-25T14:02:18.226Z,101561.21
2023-09-25T14:07:22.791Z,101559.70
2023-09-25T14:12:28.598Z,101555.86
2023-09-25T14:17:32.432Z,101548.41
2023-09-25T14:22:37.369Z,101539.11
2023-09-25T14:27:41.212Z,101533.11
2023-09-25T14:32:45.333Z,101534.30
2023-09-25T14:37:49.094Z,101531.40
2023-09-25T14:42:58.270Z,101529.12
2023-09-25T14:48:05.230Z,101522.14
2023-09-25T14:53:09.825Z,101516.30
2023-09-25T14:58:13.607Z,101516.84
2023-09-25T15:03:17.879Z,101513.63
2023-09-25T15:08:25.056Z,101515.87
2023-09-25T15:13:29.009Z,101518.54
2023-09-25T15:18:33.005Z,101523.81
2023-09-25T15:23:39.483Z,101520.73
2023-09-25T15:28:43.312Z,101517.52
2023-09-25T15:33:47.086Z,101515.00
2023-09-25T15:38:54.191Z,101518.55
2023-09-25T15:43:58.064Z,101521.61
2023-09-25T15:49:02.170Z,101523.52
2023-09-25T15:54:06.758Z,101518.71
2023-09-25T15:59:11.794Z,101514.70
2023-09-25T16:04:16.134Z,101509.20
2023-09-25T16:09:20.070Z,101508.05
2023-09-25T16:14:24.290Z,101513.06
2023-09-25T16:19:28.020Z,101509.95
2023-09-25T16:24:35.651Z,101516.13
2023-09-25T16:29:42.011Z,101514.39
2023-09-25T16:34:46.378Z,101520.06
2023-09-25T16:39:50.219Z,101518.17
2023-09-25T16:44:56.352Z,101514.91
2023-09-25T16:50:00.287Z,101508.34
2023-09-25T16:55:07.914Z,101509.41
2023-09-25T17:00:12.205Z,101508.58
2023-09-25T17:05:16.309Z,101508.17
2023-09-25T17:10:20.080Z,101506.02
2023-09-25T17:15:25.762Z,101514.23
2023-09-25T17:20:29.291Z,101513.30
2023-09-25T17:25:34.034Z,101515.29
2023-09-25T17:30:40.280Z,101516.85
2023-09-25T17:35:44.425Z,101518.34
2023-09-25T17:40:50.767Z,101518.58
2023-09-25T17:45:59.080Z,101515.23
2023-09-25T17:51:05.851Z,101510.09
2023-09-25T17:56:15.133Z,101506.09
2023-09-25T18:01:19.004Z,101508.76
2023-09-25T18:06:22.938Z,101509.26
2023-09-25T18:11:26.670Z,101505.39
2023-09-25T18:16:33.796Z,101500.02
2023-09-25T18:21:38.253Z,101502.19
2023-09-25T18:26:42.239Z,101500.92
2023-09-25T18:31:46.545Z,101495.89
2023-09-25T18:36:52.454Z,101494.34
2023-09-25T18:41:56.469Z,101494.30
2023-09-25T18:47:00.553Z,101500.20
2023-09-25T18:52:04.293Z,101501.97
2023-09-25T18:57:08.402Z,101496.11
2023-09-25T19:02:16.381Z,101493.82
2023-09-25T19:07:20.818Z,101498.80
2023-09-25T19:12:24.906Z,101506.09
2023-09-25T19:17:28.664Z,101507.08
2023-09-25T19:22:32.303Z,101503.29
2023-09-25T19:27:36.368Z,101502.12
2023-09-25T19:32:40.890Z,101505.27
2023-09-25T19:37:44.783Z,101503.45
2023-09-25T19:42:49.083Z,101504.26
2023-09-25T19:47:52.966Z,101503.05
2023-09-25T19:52:56.876Z,101503.42
2023-09-25T19:58:04.034Z,101501.05
2023-09-25T20:03:09.407Z,101501.02
2023-09-25T20:08:18.733Z,101499.23
2023-09-25T20:13:23.642Z,101493.98
2023-09-25T20:18:29.420Z,101492.65
2023-09-25T20:23:39.303Z,101492.23
2023-09-25T20:28:46.554Z,101488.79
2023-09-25T20:33:51.082Z,101486.86
2023-09-25T20:38:56.379Z,101490.96
2023-09-25T20:44:06.459Z,101492.11
2023-09-25T20:49:30.398Z,101484.95
2023-09-25T20:54:37.150Z,101486.63
2023-09-25T20:59:41.066Z,101485.66
2023-09-25T21:04:45.392Z,101487.55
2023-09-25T21:09:50.103Z,101487.13
2023-09-25T21:14:54.386Z,101488.88
2023-09-25T21:19:58.928Z,101487.11
2023-09-25T21:25:03.843Z,101494.77
2023-09-25T21:30:08.639Z,101490.98
2023-09-25T21:43:21.712Z,101495.99
2023-09-25T21:48:29.023Z,101496.98
2023-09-25T21:53:32.966Z,101491.23
2023-09-25T21:58:37.411Z,101487.11
2023-09-25T22:03:41.402Z,101481.82
2023-09-25T22:08:45.407Z,101477.77
2023-09-25T22:13:51.932Z,101470.92
2023-09-25T22:18:55.613Z,101472.77
2023-09-25T22:23:59.163Z,101467.60
2023-09-25T22:29:02.659Z,101461.92
2023-09-25T22:34:08.825Z,101462.75
2023-09-25T22:39:13.846Z,101463.95
2023-09-25T22:44:17.613Z,101466.74
2023-09-25T22:49:21.198Z,101471.83
2023-09-25T22:54:24.667Z,101475.31
2023-09-25T22:59:28.200Z,101477.51
2023-09-25T23:04:31.685Z,101475.05
2023-09-25T23:09:35.099Z,101470.64
2023-09-25T23:14:38.607Z,101469.90
2023-09-25T23:19:42.160Z,101467.21
2023-09-25T23:24:45.652Z,101464.20
2023-09-25T23:29:49.044Z,101475.06
2023-09-25T23:34:52.549Z,101476.80
2023-09-25T23:39:56.092Z,101473.98
2023-09-25T23:44:59.808Z,101473.13
2023-09-25T23:50:06.636Z,101471.11
2023-09-25T23:55:10.915Z,101468.02
